sensor_id;sensor_type;location;lat;lon;timestamp;P1;durP1;ratioP1;P2;durP2;ratioP2
46028;SDS011;31763;48.180;7.904;2023-03-04T00:00:06;86.60;;;37.20;;
46028;SDS011;31763;48.180;7.904;2023-03-04T00:02:34;72.87;;;33.83;;
46028;SDS011;31763;48.180;7.904;2023-03-04T00:05:01;81.17;;;34.13;;
46028;SDS011;31763;48.180;7.904;2023-03-04T00:07:28;65.00;;;31.40;;
46028;SDS011;31763;48.180;7.904;2023-03-04T00:09:55;47.37;;;25.27;;
46028;SDS011;31763;48.180;7.904;2023-03-04T00:12:22;60.90;;;25.57;;
46028;SDS011;31763;48.180;7.904;2023-03-04T00:14:49;53.10;;;26.10;;
46028;SDS011;31763;48.180;7.904;2023-03-04T00:17:16;53.33;;;25.87;;
46028;SDS011;31763;48.180;7.904;2023-03-04T00:19:43;52.37;;;28.53;;
46028;SDS011;31763;48.180;7.904;2023-03-04T00:22:09;52.17;;;25.70;;
46028;SDS011;31763;48.180;7.904;2023-03-04T00:24:36;57.83;;;27.17;;
46028;SDS011;31763;48.180;7.904;2023-03-04T00:27:03;49.67;;;24.00;;
46028;SDS011;31763;48.180;7.904;2023-03-04T00:29:30;55.03;;;25.00;;
46028;SDS011;31763;48.180;7.904;2023-03-04T00:31:56;51.87;;;25.10;;
46028;SDS011;31763;48.180;7.904;2023-03-04T00:34:23;55.23;;;24.93;;
46028;SDS011;31763;48.180;7.904;2023-03-04T00:36:50;51.97;;;26.80;;
46028;SDS011;31763;48.180;7.904;2023-03-04T00:39:17;55.23;;;26.67;;
46028;SDS011;31763;48.180;7.904;2023-03-04T00:41:44;53.93;;;25.43;;
46028;SDS011;31763;48.180;7.904;2023-03-04T00:44:11;57.47;;;26.83;;
46028;SDS011;31763;48.180;7.904;2023-03-04T00:46:38;57.07;;;26.47;;
46028;SDS011;31763;48.180;7.904;2023-03-04T00:49:05;54.93;;;26.20;;
46028;SDS011;31763;48.180;7.904;2023-03-04T00:51:31;60.00;;;26.43;;
46028;SDS011;31763;48.180;7.904;2023-03-04T00:53:59;59.23;;;26.90;;
46028;SDS011;31763;48.180;7.904;2023-03-04T00:56:26;56.27;;;26.80;;
46028;SDS011;31763;48.180;7.904;2023-03-04T00:58:53;59.07;;;28.70;;
46028;SDS011;31763;48.180;7.904;2023-03-04T01:01:20;67.20;;;28.63;;
46028;SDS011;31763;48.180;7.904;2023-03-04T01:03:47;60.87;;;27.97;;
46028;SDS011;31763;48.180;7.904;2023-03-04T01:06:14;61.67;;;28.33;;
46028;SDS011;31763;48.180;7.904;2023-03-04T01:08:41;57.50;;;27.67;;
46028;SDS011;31763;48.180;7.904;2023-03-04T01:11:08;54.87;;;26.17;;
46028;SDS011;31763;48.180;7.904;2023-03-04T01:13:35;58.13;;;28.83;;
46028;SDS011;31763;48.180;7.904;2023-03-04T01:16:02;63.87;;;28.07;;
46028;SDS011;31763;48.180;7.904;2023-03-04T01:18:33;61.27;;;27.03;;
46028;SDS011;31763;48.180;7.904;2023-03-04T01:21:00;56.70;;;27.93;;
46028;SDS011;31763;48.180;7.904;2023-03-04T01:23:27;57.47;;;26.60;;
46028;SDS011;31763;48.180;7.904;2023-03-04T01:25:53;58.70;;;26.97;;
46028;SDS011;31763;48.180;7.904;2023-03-04T01:28:20;56.47;;;26.97;;
46028;SDS011;31763;48.180;7.904;2023-03-04T01:30:47;57.17;;;26.20;;
46028;SDS011;31763;48.180;7.904;2023-03-04T01:33:14;54.17;;;25.00;;
46028;SDS011;31763;48.180;7.904;2023-03-04T01:35:41;53.37;;;26.87;;
46028;SDS011;31763;48.180;7.904;2023-03-04T01:38:08;58.60;;;27.33;;
46028;SDS011;31763;48.180;7.904;2023-03-04T01:40:35;57.37;;;27.73;;
46028;SDS011;31763;48.180;7.904;2023-03-04T01:43:03;53.23;;;27.07;;
46028;SDS011;31763;48.180;7.904;2023-03-04T01:45:30;60.63;;;27.57;;
46028;SDS011;31763;48.180;7.904;2023-03-04T01:48:00;60.10;;;26.50;;
46028;SDS011;31763;48.180;7.904;2023-03-04T01:50:31;58.70;;;27.83;;
46028;SDS011;31763;48.180;7.904;2023-03-04T01:53:01;64.43;;;29.27;;
46028;SDS011;31763;48.180;7.904;2023-03-04T01:55:29;63.87;;;28.23;;
46028;SDS011;31763;48.180;7.904;2023-03-04T01:57:56;59.33;;;29.33;;
46028;SDS011;31763;48.180;7.904;2023-03-04T02:00:25;63.03;;;29.73;;
46028;SDS011;31763;48.180;7.904;2023-03-04T02:03:01;57.80;;;28.67;;
46028;SDS011;31763;48.180;7.904;2023-03-04T02:05:33;59.03;;;28.53;;
46028;SDS011;31763;48.180;7.904;2023-03-04T02:08:02;55.50;;;27.30;;
46028;SDS011;31763;48.180;7.904;2023-03-04T02:10:30;57.93;;;26.87;;
46028;SDS011;31763;48.180;7.904;2023-03-04T02:12:58;61.47;;;28.53;;
46028;SDS011;31763;48.180;7.904;2023-03-04T02:15:26;57.83;;;27.13;;
46028;SDS011;31763;48.180;7.904;2023-03-04T02:17:55;61.13;;;28.57;;
46028;SDS011;31763;48.180;7.904;2023-03-04T02:20:24;63.00;;;29.23;;
46028;SDS011;31763;48.180;7.904;2023-03-04T02:23:17;62.17;;;27.57;;
46028;SDS011;31763;48.180;7.904;2023-03-04T02:28:55;58.67;;;27.77;;
46028;SDS011;31763;48.180;7.904;2023-03-04T02:31:25;55.57;;;26.00;;
46028;SDS011;31763;48.180;7.904;2023-03-04T02:34:04;58.70;;;26.67;;
46028;SDS011;31763;48.180;7.904;2023-03-04T02:36:40;62.90;;;29.00;;
46028;SDS011;31763;48.180;7.904;2023-03-04T02:39:11;67.43;;;30.43;;
46028;SDS011;31763;48.180;7.904;2023-03-04T02:42:13;61.20;;;27.63;;
46028;SDS011;31763;48.180;7.904;2023-03-04T02:44:58;69.00;;;31.07;;
46028;SDS011;31763;48.180;7.904;2023-03-04T02:47:27;73.40;;;32.30;;
46028;SDS011;31763;48.180;7.904;2023-03-04T02:49:57;60.03;;;29.73;;
46028;SDS011;31763;48.180;7.904;2023-03-04T02:52:30;62.30;;;29.40;;
46028;SDS011;31763;48.180;7.904;2023-03-04T02:54:58;72.23;;;32.63;;
46028;SDS011;31763;48.180;7.904;2023-03-04T02:57:25;67.23;;;31.43;;
46028;SDS011;31763;48.180;7.904;2023-03-04T02:59:52;61.73;;;28.87;;
46028;SDS011;31763;48.180;7.904;2023-03-04T03:02:19;61.53;;;29.10;;
46028;SDS011;31763;48.180;7.904;2023-03-04T03:04:45;64.37;;;27.93;;
46028;SDS011;31763;48.180;7.904;2023-03-04T03:07:12;59.13;;;28.50;;
46028;SDS011;31763;48.180;7.904;2023-03-04T03:09:39;66.90;;;30.70;;
46028;SDS011;31763;48.180;7.904;2023-03-04T03:12:06;63.63;;;29.87;;
46028;SDS011;31763;48.180;7.904;2023-03-04T03:14:33;67.93;;;31.30;;
46028;SDS011;31763;48.180;7.904;2023-03-04T03:17:00;61.93;;;29.53;;
46028;SDS011;31763;48.180;7.904;2023-03-04T03:19:26;64.73;;;29.53;;
46028;SDS011;31763;48.180;7.904;2023-03-04T03:21:53;64.90;;;29.33;;
46028;SDS011;31763;48.180;7.904;2023-03-04T03:24:20;71.57;;;31.17;;
46028;SDS011;31763;48.180;7.904;2023-03-04T03:26:47;63.03;;;29.17;;
46028;SDS011;31763;48.180;7.904;2023-03-04T03:29:13;63.83;;;27.63;;
46028;SDS011;31763;48.180;7.904;2023-03-04T03:31:40;61.77;;;29.43;;
46028;SDS011;31763;48.180;7.904;2023-03-04T03:34:07;71.17;;;29.50;;
46028;SDS011;31763;48.180;7.904;2023-03-04T03:36:34;62.43;;;30.23;;
46028;SDS011;31763;48.180;7.904;2023-03-04T03:39:01;62.23;;;29.03;;
46028;SDS011;31763;48.180;7.904;2023-03-04T03:41:27;68.17;;;30.67;;
46028;SDS011;31763;48.180;7.904;2023-03-04T03:43:54;67.60;;;32.63;;
46028;SDS011;31763;48.180;7.904;2023-03-04T03:46:22;64.90;;;30.53;;
46028;SDS011;31763;48.180;7.904;2023-03-04T03:48:48;62.53;;;29.60;;
46028;SDS011;31763;48.180;7.904;2023-03-04T03:51:15;62.03;;;27.47;;
46028;SDS011;31763;48.180;7.904;2023-03-04T03:53:42;60.87;;;29.87;;
46028;SDS011;31763;48.180;7.904;2023-03-04T03:56:09;65.73;;;31.50;;
46028;SDS011;31763;48.180;7.904;2023-03-04T03:58:36;63.67;;;29.33;;
46028;SDS011;31763;48.180;7.904;2023-03-04T04:01:02;59.33;;;29.90;;
46028;SDS011;31763;48.180;7.904;2023-03-04T04:03:29;61.33;;;29.37;;
46028;SDS011;31763;48.180;7.904;2023-03-04T04:05:56;59.83;;;29.23;;
46028;SDS011;31763;48.180;7.904;2023-03-04T04:08:23;65.93;;;30.57;;
46028;SDS011;31763;48.180;7.904;2023-03-04T04:10:50;66.87;;;31.73;;
46028;SDS011;31763;48.180;7.904;2023-03-04T04:13:17;66.77;;;30.40;;
46028;SDS011;31763;48.180;7.904;2023-03-04T04:15:44;73.60;;;34.33;;
46028;SDS011;31763;48.180;7.904;2023-03-04T04:18:10;61.73;;;29.53;;
46028;SDS011;31763;48.180;7.904;2023-03-04T04:20:37;68.20;;;30.50;;
46028;SDS011;31763;48.180;7.904;2023-03-04T04:23:04;60.73;;;29.33;;
46028;SDS011;31763;48.180;7.904;2023-03-04T04:25:31;65.30;;;31.33;;
46028;SDS011;31763;48.180;7.904;2023-03-04T04:27:58;63.57;;;30.13;;
46028;SDS011;31763;48.180;7.904;2023-03-04T04:30:24;61.90;;;28.87;;
46028;SDS011;31763;48.180;7.904;2023-03-04T04:32:51;67.37;;;32.87;;
46028;SDS011;31763;48.180;7.904;2023-03-04T04:35:18;62.70;;;28.23;;
46028;SDS011;31763;48.180;7.904;2023-03-04T04:37:45;66.17;;;29.23;;
46028;SDS011;31763;48.180;7.904;2023-03-04T04:40:12;65.47;;;28.07;;
46028;SDS011;31763;48.180;7.904;2023-03-04T04:42:39;61.67;;;31.27;;
46028;SDS011;31763;48.180;7.904;2023-03-04T04:45:06;67.83;;;31.73;;
46028;SDS011;31763;48.180;7.904;2023-03-04T04:47:34;72.53;;;32.27;;
46028;SDS011;31763;48.180;7.904;2023-03-04T04:50:01;70.33;;;32.13;;
46028;SDS011;31763;48.180;7.904;2023-03-04T04:52:28;67.47;;;30.73;;
46028;SDS011;31763;48.180;7.904;2023-03-04T04:54:55;70.93;;;31.43;;
46028;SDS011;31763;48.180;7.904;2023-03-04T04:57:22;66.23;;;32.10;;
46028;SDS011;31763;48.180;7.904;2023-03-04T04:59:49;70.03;;;33.50;;
46028;SDS011;31763;48.180;7.904;2023-03-04T05:02:15;67.60;;;31.00;;
46028;SDS011;31763;48.180;7.904;2023-03-04T05:04:42;68.00;;;32.10;;
46028;SDS011;31763;48.180;7.904;2023-03-04T05:07:09;78.47;;;35.40;;
46028;SDS011;31763;48.180;7.904;2023-03-04T05:09:36;67.20;;;31.93;;
46028;SDS011;31763;48.180;7.904;2023-03-04T05:12:03;65.13;;;32.20;;
46028;SDS011;31763;48.180;7.904;2023-03-04T05:14:30;73.33;;;32.40;;
46028;SDS011;31763;48.180;7.904;2023-03-04T05:16:56;67.20;;;32.40;;
46028;SDS011;31763;48.180;7.904;2023-03-04T05:19:23;73.57;;;33.43;;
46028;SDS011;31763;48.180;7.904;2023-03-04T05:21:50;69.07;;;33.77;;
46028;SDS011;31763;48.180;7.904;2023-03-04T05:24:17;71.30;;;33.43;;
46028;SDS011;31763;48.180;7.904;2023-03-04T05:26:44;78.97;;;34.57;;
46028;SDS011;31763;48.180;7.904;2023-03-04T05:29:11;72.87;;;34.43;;
46028;SDS011;31763;48.180;7.904;2023-03-04T05:31:37;75.13;;;35.70;;
46028;SDS011;31763;48.180;7.904;2023-03-04T05:34:04;79.30;;;33.43;;
46028;SDS011;31763;48.180;7.904;2023-03-04T05:36:31;77.07;;;37.23;;
46028;SDS011;31763;48.180;7.904;2023-03-04T05:38:58;81.43;;;34.50;;
46028;SDS011;31763;48.180;7.904;2023-03-04T05:41:25;81.93;;;36.90;;
46028;SDS011;31763;48.180;7.904;2023-03-04T05:43:52;80.87;;;37.87;;
46028;SDS011;31763;48.180;7.904;2023-03-04T05:46:19;85.40;;;37.33;;
46028;SDS011;31763;48.180;7.904;2023-03-04T05:48:51;83.67;;;39.33;;
46028;SDS011;31763;48.180;7.904;2023-03-04T05:51:19;92.80;;;39.13;;
46028;SDS011;31763;48.180;7.904;2023-03-04T05:53:47;81.47;;;37.10;;
46028;SDS011;31763;48.180;7.904;2023-03-04T05:56:15;93.57;;;40.87;;
46028;SDS011;31763;48.180;7.904;2023-03-04T05:58:44;83.60;;;38.03;;
46028;SDS011;31763;48.180;7.904;2023-03-04T06:01:14;92.50;;;38.93;;
46028;SDS011;31763;48.180;7.904;2023-03-04T06:03:43;80.57;;;37.33;;
46028;SDS011;31763;48.180;7.904;2023-03-04T06:06:10;83.40;;;34.40;;
46028;SDS011;31763;48.180;7.904;2023-03-04T06:08:37;72.30;;;35.37;;
46028;SDS011;31763;48.180;7.904;2023-03-04T06:11:04;72.97;;;33.80;;
46028;SDS011;31763;48.180;7.904;2023-03-04T06:13:32;79.73;;;35.50;;
46028;SDS011;31763;48.180;7.904;2023-03-04T06:15:59;74.10;;;34.37;;
46028;SDS011;31763;48.180;7.904;2023-03-04T06:18:27;71.57;;;32.47;;
46028;SDS011;31763;48.180;7.904;2023-03-04T06:21:03;70.40;;;31.50;;
46028;SDS011;31763;48.180;7.904;2023-03-04T06:23:30;74.13;;;32.27;;
46028;SDS011;31763;48.180;7.904;2023-03-04T06:25:58;67.33;;;32.37;;
46028;SDS011;31763;48.180;7.904;2023-03-04T06:28:26;69.70;;;31.13;;
46028;SDS011;31763;48.180;7.904;2023-03-04T06:30:54;89.17;;;33.40;;
46028;SDS011;31763;48.180;7.904;2023-03-04T06:33:22;80.90;;;32.80;;
46028;SDS011;31763;48.180;7.904;2023-03-04T06:35:52;78.60;;;34.50;;
46028;SDS011;31763;48.180;7.904;2023-03-04T06:40:48;69.63;;;31.40;;
46028;SDS011;31763;48.180;7.904;2023-03-04T06:43:15;107.83;;;38.60;;
46028;SDS011;31763;48.180;7.904;2023-03-04T06:45:42;112.93;;;38.27;;
46028;SDS011;31763;48.180;7.904;2023-03-04T06:48:08;97.47;;;34.70;;
46028;SDS011;31763;48.180;7.904;2023-03-04T06:50:36;149.20;;;44.77;;
46028;SDS011;31763;48.180;7.904;2023-03-04T06:53:05;103.30;;;39.40;;
46028;SDS011;31763;48.180;7.904;2023-03-04T06:55:32;126.17;;;40.73;;
46028;SDS011;31763;48.180;7.904;2023-03-04T06:57:58;111.33;;;48.07;;
46028;SDS011;31763;48.180;7.904;2023-03-04T07:00:26;108.00;;;39.43;;
46028;SDS011;31763;48.180;7.904;2023-03-04T07:02:53;106.03;;;37.40;;
46028;SDS011;31763;48.180;7.904;2023-03-04T07:05:20;90.23;;;38.13;;
46028;SDS011;31763;48.180;7.904;2023-03-04T07:07:47;122.57;;;41.17;;
46028;SDS011;31763;48.180;7.904;2023-03-04T07:10:15;151.30;;;37.13;;
46028;SDS011;31763;48.180;7.904;2023-03-04T07:12:44;104.30;;;37.57;;
46028;SDS011;31763;48.180;7.904;2023-03-04T07:15:11;149.10;;;53.97;;
46028;SDS011;31763;48.180;7.904;2023-03-04T07:17:38;111.67;;;49.57;;
46028;SDS011;31763;48.180;7.904;2023-03-04T07:20:05;123.87;;;42.73;;
46028;SDS011;31763;48.180;7.904;2023-03-04T07:22:32;104.67;;;36.00;;
46028;SDS011;31763;48.180;7.904;2023-03-04T07:24:58;132.67;;;38.87;;
46028;SDS011;31763;48.180;7.904;2023-03-04T07:27:25;114.03;;;36.03;;
46028;SDS011;31763;48.180;7.904;2023-03-04T07:29:52;102.37;;;39.40;;
46028;SDS011;31763;48.180;7.904;2023-03-04T07:32:19;85.53;;;37.70;;
46028;SDS011;31763;48.180;7.904;2023-03-04T07:34:46;170.70;;;39.97;;
46028;SDS011;31763;48.180;7.904;2023-03-04T07:37:12;101.93;;;37.00;;
46028;SDS011;31763;48.180;7.904;2023-03-04T07:39:39;81.30;;;35.43;;
46028;SDS011;31763;48.180;7.904;2023-03-04T07:42:06;73.47;;;32.67;;
46028;SDS011;31763;48.180;7.904;2023-03-04T07:44:33;79.33;;;31.43;;
46028;SDS011;31763;48.180;7.904;2023-03-04T07:47:00;67.43;;;29.97;;
46028;SDS011;31763;48.180;7.904;2023-03-04T07:49:26;72.20;;;31.53;;
46028;SDS011;31763;48.180;7.904;2023-03-04T07:51:53;78.67;;;34.83;;
46028;SDS011;31763;48.180;7.904;2023-03-04T07:54:20;79.37;;;33.00;;
46028;SDS011;31763;48.180;7.904;2023-03-04T07:56:47;93.87;;;31.03;;
46028;SDS011;31763;48.180;7.904;2023-03-04T07:59:14;75.50;;;31.10;;
46028;SDS011;31763;48.180;7.904;2023-03-04T08:01:41;86.40;;;32.57;;
46028;SDS011;31763;48.180;7.904;2023-03-04T08:04:10;74.70;;;31.83;;
46028;SDS011;31763;48.180;7.904;2023-03-04T08:06:38;179.07;;;77.07;;
46028;SDS011;31763;48.180;7.904;2023-03-04T08:09:07;93.20;;;34.47;;
46028;SDS011;31763;48.180;7.904;2023-03-04T08:11:36;84.60;;;34.03;;
46028;SDS011;31763;48.180;7.904;2023-03-04T08:14:03;78.87;;;34.13;;
46028;SDS011;31763;48.180;7.904;2023-03-04T08:16:30;83.93;;;33.73;;
46028;SDS011;31763;48.180;7.904;2023-03-04T08:18:59;82.27;;;34.27;;
46028;SDS011;31763;48.180;7.904;2023-03-04T08:21:27;87.27;;;32.93;;
46028;SDS011;31763;48.180;7.904;2023-03-04T08:23:56;89.17;;;36.57;;
46028;SDS011;31763;48.180;7.904;2023-03-04T08:26:28;81.87;;;33.80;;
46028;SDS011;31763;48.180;7.904;2023-03-04T08:29:06;91.43;;;34.43;;
46028;SDS011;31763;48.180;7.904;2023-03-04T08:31:35;93.87;;;40.80;;
46028;SDS011;31763;48.180;7.904;2023-03-04T08:34:02;156.67;;;73.00;;
46028;SDS011;31763;48.180;7.904;2023-03-04T08:36:30;119.93;;;38.43;;
46028;SDS011;31763;48.180;7.904;2023-03-04T08:38:57;83.80;;;36.40;;
46028;SDS011;31763;48.180;7.904;2023-03-04T08:41:24;87.33;;;37.23;;
46028;SDS011;31763;48.180;7.904;2023-03-04T08:43:52;93.10;;;36.73;;
46028;SDS011;31763;48.180;7.904;2023-03-04T08:46:20;92.33;;;36.30;;
46028;SDS011;31763;48.180;7.904;2023-03-04T08:48:47;90.80;;;37.53;;
46028;SDS011;31763;48.180;7.904;2023-03-04T08:51:14;109.87;;;37.90;;
46028;SDS011;31763;48.180;7.904;2023-03-04T08:53:42;100.40;;;38.87;;
46028;SDS011;31763;48.180;7.904;2023-03-04T08:56:09;94.93;;;38.10;;
46028;SDS011;31763;48.180;7.904;2023-03-04T08:58:37;98.20;;;40.87;;
46028;SDS011;31763;48.180;7.904;2023-03-04T09:01:08;99.33;;;44.47;;
46028;SDS011;31763;48.180;7.904;2023-03-04T09:03:38;109.67;;;41.80;;
46028;SDS011;31763;48.180;7.904;2023-03-04T09:06:06;100.40;;;36.77;;
46028;SDS011;31763;48.180;7.904;2023-03-04T09:08:34;129.07;;;44.67;;
46028;SDS011;31763;48.180;7.904;2023-03-04T09:11:01;117.63;;;43.43;;
46028;SDS011;31763;48.180;7.904;2023-03-04T09:13:29;83.43;;;36.27;;
46028;SDS011;31763;48.180;7.904;2023-03-04T09:15:57;182.60;;;43.50;;
46028;SDS011;31763;48.180;7.904;2023-03-04T09:18:24;117.80;;;39.00;;
46028;SDS011;31763;48.180;7.904;2023-03-04T09:20:52;160.20;;;40.77;;
46028;SDS011;31763;48.180;7.904;2023-03-04T09:23:19;101.73;;;39.93;;
46028;SDS011;31763;48.180;7.904;2023-03-04T09:25:47;100.77;;;41.10;;
46028;SDS011;31763;48.180;7.904;2023-03-04T09:28:15;101.17;;;41.23;;
46028;SDS011;31763;48.180;7.904;2023-03-04T09:30:44;103.37;;;40.67;;
46028;SDS011;31763;48.180;7.904;2023-03-04T09:33:12;103.47;;;44.10;;
46028;SDS011;31763;48.180;7.904;2023-03-04T09:35:39;98.27;;;41.67;;
46028;SDS011;31763;48.180;7.904;2023-03-04T09:38:07;91.87;;;38.77;;
46028;SDS011;31763;48.180;7.904;2023-03-04T09:40:42;101.27;;;39.80;;
46028;SDS011;31763;48.180;7.904;2023-03-04T09:43:19;93.30;;;38.57;;
46028;SDS011;31763;48.180;7.904;2023-03-04T09:46:01;89.65;;;41.05;;
46028;SDS011;31763;48.180;7.904;2023-03-04T09:48:44;98.47;;;40.07;;
46028;SDS011;31763;48.180;7.904;2023-03-04T09:51:22;136.57;;;38.50;;
46028;SDS011;31763;48.180;7.904;2023-03-04T10:00:00;90.13;;;38.20;;
46028;SDS011;31763;48.180;7.904;2023-03-04T10:02:57;87.70;;;35.92;;
46028;SDS011;31763;48.180;7.904;2023-03-04T10:14:03;98.43;;;40.27;;
46028;SDS011;31763;48.180;7.904;2023-03-04T10:22:23;93.67;;;40.47;;
46028;SDS011;31763;48.180;7.904;2023-03-04T10:25:17;101.10;;;43.30;;
46028;SDS011;31763;48.180;7.904;2023-03-04T10:27:53;106.00;;;44.53;;
46028;SDS011;31763;48.180;7.904;2023-03-04T10:33:21;89.78;;;38.47;;
46028;SDS011;31763;48.180;7.904;2023-03-04T10:38:32;89.13;;;38.93;;
46028;SDS011;31763;48.180;7.904;2023-03-04T10:41:12;88.28;;;39.28;;
46028;SDS011;31763;48.180;7.904;2023-03-04T10:43:42;98.30;;;38.93;;
46028;SDS011;31763;48.180;7.904;2023-03-04T10:46:15;91.17;;;37.53;;
46028;SDS011;31763;48.180;7.904;2023-03-04T10:48:42;81.17;;;36.27;;
46028;SDS011;31763;48.180;7.904;2023-03-04T10:51:11;88.30;;;37.63;;
46028;SDS011;31763;48.180;7.904;2023-03-04T10:53:48;78.83;;;34.53;;
46028;SDS011;31763;48.180;7.904;2023-03-04T10:56:31;79.73;;;35.47;;
46028;SDS011;31763;48.180;7.904;2023-03-04T11:07:45;81.93;;;35.07;;
46028;SDS011;31763;48.180;7.904;2023-03-04T11:10:44;83.33;;;36.77;;
46028;SDS011;31763;48.180;7.904;2023-03-04T11:21:02;71.20;;;32.10;;
46028;SDS011;31763;48.180;7.904;2023-03-04T11:27:10;77.18;;;36.42;;
46028;SDS011;31763;48.180;7.904;2023-03-04T11:29:27;78.20;;;34.53;;
46028;SDS011;31763;48.180;7.904;2023-03-04T11:32:13;80.97;;;34.97;;
46028;SDS011;31763;48.180;7.904;2023-03-04T11:35:03;82.05;;;35.13;;
46028;SDS011;31763;48.180;7.904;2023-03-04T11:38:01;75.40;;;32.63;;
46028;SDS011;31763;48.180;7.904;2023-03-04T11:40:45;72.78;;;33.15;;
46028;SDS011;31763;48.180;7.904;2023-03-04T11:43:32;71.07;;;32.80;;
46028;SDS011;31763;48.180;7.904;2023-03-04T12:01:05;58.33;;;28.77;;
46028;SDS011;31763;48.180;7.904;2023-03-04T12:14:46;56.33;;;26.98;;
46028;SDS011;31763;48.180;7.904;2023-03-04T12:17:47;50.17;;;25.17;;
46028;SDS011;31763;48.180;7.904;2023-03-04T12:26:48;44.90;;;22.90;;
46028;SDS011;31763;48.180;7.904;2023-03-04T12:29:57;44.83;;;23.30;;
46028;SDS011;31763;48.180;7.904;2023-03-04T12:32:51;41.28;;;22.63;;
46028;SDS011;31763;48.180;7.904;2023-03-04T12:48:04;44.85;;;23.05;;
46028;SDS011;31763;48.180;7.904;2023-03-04T12:57:18;48.55;;;26.52;;
46028;SDS011;31763;48.180;7.904;2023-03-04T13:03:05;50.83;;;25.27;;
46028;SDS011;31763;48.180;7.904;2023-03-04T13:09:13;52.08;;;28.05;;
46028;SDS011;31763;48.180;7.904;2023-03-04T13:12:16;47.60;;;25.77;;
46028;SDS011;31763;48.180;7.904;2023-03-04T13:17:41;51.55;;;26.85;;
46028;SDS011;31763;48.180;7.904;2023-03-04T13:24:00;51.00;;;27.08;;
46028;SDS011;31763;48.180;7.904;2023-03-04T13:38:35;45.90;;;26.15;;
46028;SDS011;31763;48.180;7.904;2023-03-04T13:43:45;55.83;;;29.33;;
46028;SDS011;31763;48.180;7.904;2023-03-04T13:51:31;51.72;;;29.52;;
46028;SDS011;31763;48.180;7.904;2023-03-04T13:54:29;48.15;;;27.40;;
46028;SDS011;31763;48.180;7.904;2023-03-04T13:59:40;45.80;;;27.42;;
46028;SDS011;31763;48.180;7.904;2023-03-04T14:02:24;44.30;;;24.55;;
46028;SDS011;31763;48.180;7.904;2023-03-04T14:05:03;48.10;;;25.83;;
46028;SDS011;31763;48.180;7.904;2023-03-04T14:07:36;48.80;;;25.80;;
46028;SDS011;31763;48.180;7.904;2023-03-04T14:13:00;44.47;;;23.38;;
46028;SDS011;31763;48.180;7.904;2023-03-04T14:15:37;41.13;;;23.75;;
46028;SDS011;31763;48.180;7.904;2023-03-04T14:18:23;35.22;;;21.15;;
46028;SDS011;31763;48.180;7.904;2023-03-04T14:20:54;36.78;;;21.88;;
46028;SDS011;31763;48.180;7.904;2023-03-04T14:23:38;40.45;;;25.05;;
46028;SDS011;31763;48.180;7.904;2023-03-04T14:26:12;43.63;;;25.95;;
46028;SDS011;31763;48.180;7.904;2023-03-04T14:28:47;43.63;;;25.83;;
46028;SDS011;31763;48.180;7.904;2023-03-04T14:31:23;43.75;;;25.92;;
46028;SDS011;31763;48.180;7.904;2023-03-04T14:33:56;44.30;;;27.55;;
46028;SDS011;31763;48.180;7.904;2023-03-04T14:36:31;45.00;;;27.42;;
46028;SDS011;31763;48.180;7.904;2023-03-04T14:39:02;38.47;;;23.77;;
46028;SDS011;31763;48.180;7.904;2023-03-04T14:41:35;37.10;;;24.05;;
46028;SDS011;31763;48.180;7.904;2023-03-04T14:47:05;39.53;;;19.50;;
46028;SDS011;31763;48.180;7.904;2023-03-04T14:49:43;34.05;;;20.52;;
46028;SDS011;31763;48.180;7.904;2023-03-04T14:52:25;34.20;;;21.20;;
46028;SDS011;31763;48.180;7.904;2023-03-04T14:55:15;38.25;;;22.42;;
46028;SDS011;31763;48.180;7.904;2023-03-04T14:57:49;40.42;;;22.35;;
46028;SDS011;31763;48.180;7.904;2023-03-04T15:00:25;39.88;;;23.58;;
46028;SDS011;31763;48.180;7.904;2023-03-04T15:03:06;41.38;;;22.95;;
46028;SDS011;31763;48.180;7.904;2023-03-04T15:05:47;40.40;;;20.95;;
46028;SDS011;31763;48.180;7.904;2023-03-04T15:08:19;42.45;;;23.67;;
46028;SDS011;31763;48.180;7.904;2023-03-04T15:10:54;42.70;;;23.35;;
46028;SDS011;31763;48.180;7.904;2023-03-04T15:13:40;42.28;;;23.17;;
46028;SDS011;31763;48.180;7.904;2023-03-04T15:16:12;47.40;;;26.08;;
46028;SDS011;31763;48.180;7.904;2023-03-04T15:24:06;51.25;;;25.95;;
46028;SDS011;31763;48.180;7.904;2023-03-04T15:26:38;51.17;;;27.40;;
46028;SDS011;31763;48.180;7.904;2023-03-04T15:29:14;56.88;;;30.35;;
46028;SDS011;31763;48.180;7.904;2023-03-04T15:31:44;51.72;;;27.73;;
46028;SDS011;31763;48.180;7.904;2023-03-04T15:34:16;50.90;;;25.92;;
46028;SDS011;31763;48.180;7.904;2023-03-04T15:36:45;52.38;;;27.25;;
46028;SDS011;31763;48.180;7.904;2023-03-04T15:39:15;52.15;;;25.38;;
46028;SDS011;31763;48.180;7.904;2023-03-04T15:41:43;59.50;;;28.30;;
46028;SDS011;31763;48.180;7.904;2023-03-04T15:44:13;59.63;;;26.17;;
46028;SDS011;31763;48.180;7.904;2023-03-04T15:46:40;54.85;;;27.92;;
46028;SDS011;31763;48.180;7.904;2023-03-04T15:49:07;51.33;;;26.83;;
46028;SDS011;31763;48.180;7.904;2023-03-04T15:51:34;55.40;;;26.83;;
46028;SDS011;31763;48.180;7.904;2023-03-04T15:54:01;51.28;;;26.85;;
46028;SDS011;31763;48.180;7.904;2023-03-04T15:56:30;63.17;;;30.17;;
46028;SDS011;31763;48.180;7.904;2023-03-04T15:59:02;56.65;;;29.42;;
46028;SDS011;31763;48.180;7.904;2023-03-04T16:01:36;56.35;;;27.35;;
46028;SDS011;31763;48.180;7.904;2023-03-04T16:04:03;56.17;;;25.88;;
46028;SDS011;31763;48.180;7.904;2023-03-04T16:06:31;59.47;;;26.95;;
46028;SDS011;31763;48.180;7.904;2023-03-04T16:08:58;56.10;;;27.27;;
46028;SDS011;31763;48.180;7.904;2023-03-04T16:11:26;51.22;;;24.88;;
46028;SDS011;31763;48.180;7.904;2023-03-04T16:13:55;55.22;;;27.58;;
46028;SDS011;31763;48.180;7.904;2023-03-04T16:16:22;55.95;;;27.42;;
46028;SDS011;31763;48.180;7.904;2023-03-04T16:18:49;58.05;;;27.63;;
46028;SDS011;31763;48.180;7.904;2023-03-04T16:21:17;55.55;;;27.15;;
46028;SDS011;31763;48.180;7.904;2023-03-04T16:23:47;54.03;;;25.35;;
46028;SDS011;31763;48.180;7.904;2023-03-04T16:26:19;54.83;;;26.50;;
46028;SDS011;31763;48.180;7.904;2023-03-04T16:28:48;55.75;;;25.73;;
46028;SDS011;31763;48.180;7.904;2023-03-04T16:31:16;55.72;;;26.73;;
46028;SDS011;31763;48.180;7.904;2023-03-04T16:33:45;60.72;;;27.15;;
46028;SDS011;31763;48.180;7.904;2023-03-04T16:36:17;59.78;;;28.55;;
46028;SDS011;31763;48.180;7.904;2023-03-04T16:38:50;58.30;;;27.90;;
46028;SDS011;31763;48.180;7.904;2023-03-04T16:41:23;60.72;;;27.25;;
46028;SDS011;31763;48.180;7.904;2023-03-04T16:43:53;64.13;;;27.92;;
46028;SDS011;31763;48.180;7.904;2023-03-04T16:46:22;59.03;;;26.85;;
46028;SDS011;31763;48.180;7.904;2023-03-04T16:48:49;55.33;;;24.00;;
46028;SDS011;31763;48.180;7.904;2023-03-04T16:51:17;57.75;;;25.33;;
46028;SDS011;31763;48.180;7.904;2023-03-04T16:53:47;55.43;;;22.97;;
46028;SDS011;31763;48.180;7.904;2023-03-04T16:56:25;60.00;;;24.42;;
46028;SDS011;31763;48.180;7.904;2023-03-04T16:58:52;62.13;;;26.45;;
46028;SDS011;31763;48.180;7.904;2023-03-04T17:01:21;59.23;;;24.80;;
46028;SDS011;31763;48.180;7.904;2023-03-04T17:03:52;59.43;;;24.37;;
46028;SDS011;31763;48.180;7.904;2023-03-04T17:06:20;65.83;;;25.17;;
46028;SDS011;31763;48.180;7.904;2023-03-04T17:08:47;65.03;;;25.30;;